Time;durP1;ratioP1;P1;durP2;ratioP2;P2;SDS_P1;SDS_P2;PMS_P1;PMS_P2;Temp;Humidity;BMP_temperature;BMP_pressure;BME280_temperature;BME280_humidity;BME280_pressure;Samples;Min_cycle;Max_cycle;Signal;HPM_P1;HPM_P2
2022/03/07 00:01:25;;;;;;;;;;;-0.60;67.30;;;;;;5066799;28;19924;-77
2022/03/07 00:03:53;;;;;;;;;;;-0.60;67.10;;;;;;5067371;28;20356;-75
2022/03/07 00:06:20;;;;;;;;;;;-0.60;66.80;;;;;;5073400;28;19932;-75
2022/03/07 00:08:48;;;;;;;;;;;-0.60;67.30;;;;;;5072839;28;19925;-77
2022/03/07 00:11:16;;;;;;;;;;;-0.70;67.40;;;;;;5062380;28;20366;-76
2022/03/07 00:13:43;;;;;;;;;;;-0.60;67.60;;;;;;5068451;28;19932;-78
2022/03/07 00:16:10;;;;;;;;;;;-0.60;67.60;;;;;;5076629;28;19959;-75
2022/03/07 00:18:38;;;;;;;;;;;-0.70;67.20;;;;;;5075962;28;19928;-78
2022/03/07 00:21:05;;;;;;;;;;;-0.70;66.80;;;;;;5066571;28;19928;-75
2022/03/07 00:23:32;;;;;;;;;;;-0.70;66.60;;;;;;5071275;28;19990;-75
2022/03/07 00:26:03;;;;;;;;;;;-0.70;67.80;;;;;;5070114;28;19924;-77
2022/03/07 00:28:29;;;;;;;;;;;-0.80;66.80;;;;;;5067676;28;19929;-78
2022/03/07 00:30:56;;;;;;;;;;;-0.80;67.50;;;;;;5068171;28;19933;-75
2022/03/07 00:33:23;;;;;;;;;;;-0.80;69.40;;;;;;5070659;28;19925;-77
2022/03/07 00:35:50;;;;;;;;;;;-0.90;69.00;;;;;;5069654;28;19925;-75
2022/03/07 00:38:17;;;;;;;;;;;-0.90;69.00;;;;;;5073474;28;20384;-75
2022/03/07 00:40:44;;;;;;;;;;;-0.90;69.30;;;;;;5065848;28;19963;-75
2022/03/07 00:43:10;;;;;;;;;;;-0.90;68.80;;;;;;5057633;28;19971;-78
2022/03/07 00:45:37;;;;;;;;;;;-1.00;69.00;;;;;;5071116;28;19932;-77
2022/03/07 00:48:04;;;;;;;;;;;-1.00;68.70;;;;;;5070291;28;19924;-75
2022/03/07 00:50:31;;;;;;;;;;;-1.00;69.00;;;;;;5067222;28;19928;-75
2022/03/07 00:52:58;;;;;;;;;;;-1.10;71.20;;;;;;5071069;28;19951;-75
2022/03/07 00:55:24;;;;;;;;;;;-1.10;70.30;;;;;;5074589;28;19925;-77
2022/03/07 00:57:51;;;;;;;;;;;-1.10;69.70;;;;;;5071277;28;20453;-76
2022/03/07 01:00:20;;;;;;;;;;;-1.10;69.70;;;;;;5070984;28;20388;-75
2022/03/07 01:02:46;;;;;;;;;;;-1.10;69.80;;;;;;5074152;28;19928;-78
2022/03/07 01:05:14;;;;;;;;;;;-1.10;69.00;;;;;;5068235;28;19955;-77
2022/03/07 01:07:41;;;;;;;;;;;-1.10;70.00;;;;;;5061277;28;19928;-78
2022/03/07 01:10:08;;;;;;;;;;;-1.10;70.60;;;;;;5066600;28;20380;-78
2022/03/07 01:12:35;;;;;;;;;;;-1.20;71.00;;;;;;5070917;28;20392;-78
2022/03/07 01:15:03;;;;;;;;;;;-1.20;71.90;;;;;;5066600;28;19929;-78
2022/03/07 01:17:30;;;;;;;;;;;-1.20;73.50;;;;;;5065713;28;19924;-77
2022/03/07 01:19:56;;;;;;;;;;;-1.20;72.80;;;;;;5068667;28;19933;-76
2022/03/07 01:22:23;;;;;;;;;;;-1.20;73.60;;;;;;5072674;28;20342;-73
2022/03/07 01:24:50;;;;;;;;;;;-1.20;74.60;;;;;;5071953;28;19971;-74
2022/03/07 01:27:19;;;;;;;;;;;-1.20;73.10;;;;;;5072155;28;20022;-75
2022/03/07 01:29:46;;;;;;;;;;;-1.10;73.10;;;;;;5071037;28;19978;-78
2022/03/07 01:32:13;;;;;;;;;;;-1.10;73.30;;;;;;5068942;28;19979;-76
2022/03/07 01:34:39;;;;;;;;;;;-1.10;72.60;;;;;;5072387;28;19955;-76
2022/03/07 01:37:06;;;;;;;;;;;-1.10;72.20;;;;;;5076773;28;19967;-79
2022/03/07 01:39:33;;;;;;;;;;;-1.10;71.80;;;;;;5076395;28;19928;-77
2022/03/07 01:42:00;;;;;;;;;;;-1.00;71.40;;;;;;5072687;28;19956;-76
2022/03/07 01:44:30;;;;;;;;;;;-1.10;70.90;;;;;;5063882;28;19968;-76
2022/03/07 01:46:57;;;;;;;;;;;-1.20;72.60;;;;;;5067032;28;19928;-76
2022/03/07 01:49:26;;;;;;;;;;;-1.30;72.10;;;;;;5063856;28;19971;-76
2022/03/07 01:51:53;;;;;;;;;;;-1.30;71.80;;;;;;5059604;28;20446;-73
2022/03/07 01:54:20;;;;;;;;;;;-1.30;71.80;;;;;;5065744;28;19964;-75
2022/03/07 01:56:48;;;;;;;;;;;-1.40;72.10;;;;;;5067864;28;19978;-75
2022/03/07 01:59:16;;;;;;;;;;;-1.50;73.20;;;;;;5070081;28;20411;-73
2022/03/07 02:01:43;;;;;;;;;;;-1.50;75.10;;;;;;5068748;28;19924;-73
2022/03/07 02:04:10;;;;;;;;;;;-1.50;74.30;;;;;;5064979;28;19932;-75
2022/03/07 02:06:41;;;;;;;;;;;-1.50;75.60;;;;;;5070474;28;19925;-74
2022/03/07 02:09:08;;;;;;;;;;;-1.60;75.10;;;;;;5069484;28;19970;-74
2022/03/07 02:11:35;;;;;;;;;;;-1.60;75.80;;;;;;5074022;28;19947;-73
2022/03/07 02:14:11;;;;;;;;;;;-1.60;75.70;;;;;;5070994;28;19979;-75
2022/03/07 02:16:38;;;;;;;;;;;-1.60;76.10;;;;;;5065900;28;19928;-75
2022/03/07 02:19:05;;;;;;;;;;;-1.70;75.40;;;;;;5072726;28;19951;-76
2022/03/07 02:21:35;;;;;;;;;;;-1.70;75.50;;;;;;5068559;28;19931;-76
2022/03/07 02:24:03;;;;;;;;;;;-1.70;75.20;;;;;;5072944;28;19981;-76
2022/03/07 02:26:30;;;;;;;;;;;-1.70;75.20;;;;;;5077954;28;19967;-76
2022/03/07 02:28:57;;;;;;;;;;;-1.70;75.40;;;;;;5067614;28;19970;-76
2022/03/07 02:31:24;;;;;;;;;;;-1.70;75.30;;;;;;5065122;28;19970;-76
2022/03/07 02:33:51;;;;;;;;;;;-1.70;75.40;;;;;;5074496;28;19935;-74
2022/03/07 02:36:18;;;;;;;;;;;-1.80;75.00;;;;;;5072210;28;19950;-76
2022/03/07 02:38:44;;;;;;;;;;;-1.80;74.10;;;;;;5072829;28;19932;-76
2022/03/07 02:41:11;;;;;;;;;;;-1.80;74.30;;;;;;5065275;28;20396;-73
2022/03/07 02:43:38;;;;;;;;;;;-1.80;74.10;;;;;;5064781;28;19964;-73
2022/03/07 02:46:05;;;;;;;;;;;-1.90;73.80;;;;;;5072979;28;19967;-73
2022/03/07 02:48:32;;;;;;;;;;;-1.90;74.30;;;;;;5068557;28;20454;-73
2022/03/07 02:50:59;;;;;;;;;;;-2.00;73.20;;;;;;5067933;28;19959;-76
2022/03/07 02:53:26;;;;;;;;;;;-2.00;73.40;;;;;;5069935;28;20356;-75
2022/03/07 02:55:54;;;;;;;;;;;-2.00;73.70;;;;;;5072042;28;19925;-73
2022/03/07 02:58:21;;;;;;;;;;;-2.00;74.00;;;;;;5072035;28;19924;-73
2022/03/07 03:00:48;;;;;;;;;;;-2.00;75.40;;;;;;5072369;28;19924;-74
2022/03/07 03:03:15;;;;;;;;;;;-2.00;74.50;;;;;;5073380;28;20393;-75
2022/03/07 03:05:42;;;;;;;;;;;-2.00;77.50;;;;;;5064251;28;19936;-73
2022/03/07 03:08:09;;;;;;;;;;;-2.00;75.90;;;;;;5069824;28;19972;-75
2022/03/07 03:10:36;;;;;;;;;;;-2.00;75.90;;;;;;5069825;28;19924;-76
2022/03/07 03:13:03;;;;;;;;;;;-2.00;75.40;;;;;;5071220;28;19970;-74
2022/03/07 03:15:30;;;;;;;;;;;-2.00;75.90;;;;;;5070185;28;20516;-75
2022/03/07 03:17:57;;;;;;;;;;;-2.00;76.70;;;;;;5069511;28;19986;-76
2022/03/07 03:20:23;;;;;;;;;;;-2.00;76.70;;;;;;5075511;28;19968;-73
2022/03/07 03:22:52;;;;;;;;;;;-2.00;77.80;;;;;;5060117;28;19931;-73
2022/03/07 03:25:19;;;;;;;;;;;-2.00;76.50;;;;;;5065473;28;20372;-76
2022/03/07 03:27:46;;;;;;;;;;;-2.10;76.20;;;;;;5063344;28;20292;-76
2022/03/07 03:30:13;;;;;;;;;;;-2.10;77.00;;;;;;5062529;28;19978;-74
2022/03/07 03:32:40;;;;;;;;;;;-2.10;76.40;;;;;;5058003;28;19928;-76
2022/03/07 03:35:07;;;;;;;;;;;-2.10;77.40;;;;;;5062535;28;19928;-74
2022/03/07 03:37:34;;;;;;;;;;;-2.10;75.80;;;;;;5065069;28;19974;-73
2022/03/07 03:40:02;;;;;;;;;;;-2.10;75.20;;;;;;5069360;28;19975;-76
2022/03/07 03:42:28;;;;;;;;;;;-2.20;76.20;;;;;;5063891;28;19928;-75
2022/03/07 03:44:58;;;;;;;;;;;-2.20;76.40;;;;;;5069892;28;20307;-76
2022/03/07 03:47:25;;;;;;;;;;;-2.20;76.40;;;;;;5072098;28;19959;-75
2022/03/07 03:49:52;;;;;;;;;;;-2.20;76.90;;;;;;5073265;28;19925;-74
2022/03/07 03:52:19;;;;;;;;;;;-2.20;77.40;;;;;;5075106;28;20347;-74
2022/03/07 03:54:46;;;;;;;;;;;-2.20;76.80;;;;;;5070323;28;19990;-76
2022/03/07 03:57:12;;;;;;;;;;;-2.20;76.70;;;;;;5069391;28;19979;-74
2022/03/07 03:59:39;;;;;;;;;;;-2.20;76.90;;;;;;5067019;28;19929;-76
2022/03/07 04:02:06;;;;;;;;;;;-2.20;76.30;;;;;;5067347;28;19929;-76
2022/03/07 04:04:33;;;;;;;;;;;-2.20;76.70;;;;;;5070726;28;19968;-73
2022/03/07 04:07:00;;;;;;;;;;;-2.10;76.60;;;;;;5070705;28;19978;-76
2022/03/07 04:09:29;;;;;;;;;;;-2.00;76.60;;;;;;5075710;28;19929;-73
2022/03/07 04:11:56;;;;;;;;;;;-1.80;76.00;;;;;;5075030;28;19924;-76
2022/03/07 04:14:23;;;;;;;;;;;-1.60;75.60;;;;;;5065193;28;20384;-76
2022/03/07 04:16:52;;;;;;;;;;;-1.30;74.90;;;;;;5063839;28;20381;-73
2022/03/07 04:19:20;;;;;;;;;;;-1.10;74.00;;;;;;5069477;28;19971;-73
2022/03/07 04:21:46;;;;;;;;;;;-0.90;73.00;;;;;;5071626;28;19928;-76
2022/03/07 04:24:14;;;;;;;;;;;-0.70;72.30;;;;;;5071481;28;19925;-76
2022/03/07 04:26:42;;;;;;;;;;;-0.60;71.60;;;;;;5069745;28;19933;-73
2022/03/07 04:29:08;;;;;;;;;;;-0.40;70.80;;;;;;5071585;28;19948;-73
2022/03/07 04:31:39;;;;;;;;;;;-0.30;70.20;;;;;;5068324;28;19971;-74
2022/03/07 04:34:09;;;;;;;;;;;-0.20;69.80;;;;;;5065441;28;20459;-74
2022/03/07 04:36:37;;;;;;;;;;;0.00;69.00;;;;;;5074723;28;19924;-76
2022/03/07 04:39:04;;;;;;;;;;;0.10;68.60;;;;;;5068908;28;19924;-74
2022/03/07 04:41:31;;;;;;;;;;;0.10;68.20;;;;;;5066585;28;19929;-73
2022/03/07 04:43:58;;;;;;;;;;;0.20;68.00;;;;;;5070178;28;19976;-75
2022/03/07 04:46:25;;;;;;;;;;;0.20;67.50;;;;;;5069679;28;19964;-74
2022/03/07 04:48:57;;;;;;;;;;;0.30;67.40;;;;;;5069881;28;20388;-77
2022/03/07 04:51:24;;;;;;;;;;;0.30;67.00;;;;;;5066493;28;19928;-75
2022/03/07 04:53:50;;;;;;;;;;;0.30;67.00;;;;;;5072008;28;19928;-74
2022/03/07 04:56:17;;;;;;;;;;;0.30;66.90;;;;;;5069151;28;19928;-74
2022/03/07 04:58:44;;;;;;;;;;;0.40;66.70;;;;;;5069413;28;20501;-77
2022/03/07 05:01:13;;;;;;;;;;;0.40;66.50;;;;;;5069517;28;19971;-77
2022/03/07 05:03:40;;;;;;;;;;;0.40;66.30;;;;;;5069445;28;19931;-76
2022/03/07 05:06:08;;;;;;;;;;;0.40;66.20;;;;;;5065632;28;20357;-74
2022/03/07 05:08:38;;;;;;;;;;;0.40;66.20;;;;;;5074919;28;19974;-74
2022/03/07 05:11:05;;;;;;;;;;;0.40;66.20;;;;;;5071610;28;19936;-74
2022/03/07 05:13:32;;;;;;;;;;;0.40;66.00;;;;;;5070276;28;19977;-74
2022/03/07 05:15:59;;;;;;;;;;;0.40;65.80;;;;;;5069830;28;20366;-76
2022/03/07 05:18:26;;;;;;;;;;;0.40;65.90;;;;;;5067308;28;19940;-75
2022/03/07 05:20:53;;;;;;;;;;;0.40;65.90;;;;;;5067619;28;20347;-74
2022/03/07 05:23:24;;;;;;;;;;;0.40;65.80;;;;;;5068174;28;19925;-73
2022/03/07 05:25:51;;;;;;;;;;;0.40;65.70;;;;;;5069153;28;19982;-74
2022/03/07 05:28:18;;;;;;;;;;;0.40;65.80;;;;;;5071552;28;20029;-73
2022/03/07 05:30:45;;;;;;;;;;;0.50;65.60;;;;;;5070301;28;19929;-77
2022/03/07 05:33:11;;;;;;;;;;;0.40;65.50;;;;;;5070937;28;19974;-75
2022/03/07 05:35:38;;;;;;;;;;;0.40;65.50;;;;;;5065406;28;19930;-74
2022/03/07 05:38:05;;;;;;;;;;;0.40;65.50;;;;;;5072249;28;19985;-77
2022/03/07 05:40:32;;;;;;;;;;;0.30;65.30;;;;;;5069314;28;20462;-76
2022/03/07 05:42:59;;;;;;;;;;;0.30;65.50;;;;;;5069341;28;19963;-76
2022/03/07 05:45:25;;;;;;;;;;;0.30;65.40;;;;;;5067120;28;19960;-77
2022/03/07 05:47:52;;;;;;;;;;;0.30;65.20;;;;;;5067345;28;19994;-74
2022/03/07 05:50:19;;;;;;;;;;;0.30;65.30;;;;;;5070284;28;20292;-73
2022/03/07 05:52:46;;;;;;;;;;;0.30;65.10;;;;;;5067464;28;19925;-77
2022/03/07 05:55:12;;;;;;;;;;;0.30;65.30;;;;;;5069042;28;19973;-74
2022/03/07 05:57:39;;;;;;;;;;;0.30;65.40;;;;;;5070989;28;20054;-73
2022/03/07 06:00:07;;;;;;;;;;;0.20;65.50;;;;;;5067713;28;19947;-76
2022/03/07 06:02:34;;;;;;;;;;;0.20;65.80;;;;;;5083614;28;19925;-74
2022/03/07 06:05:04;;;;;;;;;;;0.20;65.60;;;;;;5069019;28;20014;-76
2022/03/07 06:07:31;;;;;;;;;;;0.00;65.60;;;;;;5063921;28;19975;-76
2022/03/07 06:09:58;;;;;;;;;;;-0.10;66.10;;;;;;5068701;28;19925;-77
2022/03/07 06:12:26;;;;;;;;;;;-0.20;66.20;;;;;;5069577;28;19928;-74
2022/03/07 06:14:54;;;;;;;;;;;-0.50;66.40;;;;;;5072487;28;19928;-74
2022/03/07 06:17:21;;;;;;;;;;;-0.70;67.30;;;;;;5068515;28;19924;-73
2022/03/07 06:19:48;;;;;;;;;;;-0.70;67.90;;;;;;5071091;28;19928;-75
2022/03/07 06:22:15;;;;;;;;;;;-0.80;67.90;;;;;;5076355;28;19928;-75
2022/03/07 06:24:42;;;;;;;;;;;-0.90;68.10;;;;;;5071197;28;19929;-74
2022/03/07 06:27:09;;;;;;;;;;;-1.00;68.70;;;;;;5061506;28;19936;-74
2022/03/07 06:29:35;;;;;;;;;;;-1.20;70.50;;;;;;5052714;28;20277;-74
2022/03/07 06:32:02;;;;;;;;;;;-1.30;71.30;;;;;;5059309;28;19925;-77
2022/03/07 06:34:31;;;;;;;;;;;-1.40;71.70;;;;;;5068122;28;19924;-74
2022/03/07 06:36:58;;;;;;;;;;;-1.40;71.70;;;;;;5070266;28;19946;-74
2022/03/07 06:39:26;;;;;;;;;;;-1.50;72.60;;;;;;5070440;28;19932;-74
2022/03/07 06:41:55;;;;;;;;;;;-1.60;73.10;;;;;;5069150;28;19936;-76
2022/03/07 06:44:22;;;;;;;;;;;-1.60;73.00;;;;;;5070584;28;19928;-74
2022/03/07 06:46:49;;;;;;;;;;;-1.70;72.60;;;;;;5066912;28;20445;-73
2022/03/07 06:49:16;;;;;;;;;;;-1.60;72.80;;;;;;5073881;28;20363;-76
2022/03/07 06:51:43;;;;;;;;;;;-1.60;73.80;;;;;;5075655;28;19946;-74
2022/03/07 06:54:10;;;;;;;;;;;-1.60;73.70;;;;;;5073824;28;19928;-77
2022/03/07 06:56:37;;;;;;;;;;;-1.60;74.00;;;;;;5073346;28;20350;-77
2022/03/07 06:59:04;;;;;;;;;;;-1.60;73.90;;;;;;5075665;28;19952;-77
2022/03/07 07:01:31;;;;;;;;;;;-1.50;73.70;;;;;;5075178;28;20291;-76
2022/03/07 07:03:58;;;;;;;;;;;-1.40;74.00;;;;;;5073646;28;20023;-76
2022/03/07 07:06:24;;;;;;;;;;;-1.40;73.70;;;;;;5070828;28;19928;-76
2022/03/07 07:08:51;;;;;;;;;;;-1.40;74.10;;;;;;5080789;28;20277;-75
2022/03/07 07:11:18;;;;;;;;;;;-1.30;74.30;;;;;;5070389;28;19963;-74
2022/03/07 07:13:45;;;;;;;;;;;-1.20;74.10;;;;;;5076720;28;20284;-74
2022/03/07 07:16:12;;;;;;;;;;;-1.20;73.90;;;;;;5075490;28;19955;-74
2022/03/07 07:18:38;;;;;;;;;;;-1.10;74.80;;;;;;5074645;28;19924;-75
2022/03/07 07:21:05;;;;;;;;;;;-1.00;74.80;;;;;;5072541;28;19932;-74
2022/03/07 07:23:32;;;;;;;;;;;-0.80;75.70;;;;;;5077100;28;20408;-76
2022/03/07 07:25:59;;;;;;;;;;;-0.70;76.00;;;;;;5076060;28;20338;-74
2022/03/07 07:28:26;;;;;;;;;;;-0.60;76.40;;;;;;5071633;28;19975;-76
2022/03/07 07:30:53;;;;;;;;;;;-0.50;77.20;;;;;;5074354;28;19936;-74
2022/03/07 07:33:19;;;;;;;;;;;-0.40;76.70;;;;;;5065907;28;19932;-74
2022/03/07 07:35:46;;;;;;;;;;;-0.30;76.50;;;;;;5071701;28;19932;-75
2022/03/07 07:38:13;;;;;;;;;;;-0.10;76.50;;;;;;5076645;28;19974;-75
2022/03/07 07:40:40;;;;;;;;;;;0.10;75.80;;;;;;5074909;28;19928;-76
2022/03/07 07:43:07;;;;;;;;;;;0.30;74.90;;;;;;5069540;28;20005;-75
2022/03/07 07:45:34;;;;;;;;;;;0.50;73.60;;;;;;5071576;28;19974;-76
2022/03/07 07:48:01;;;;;;;;;;;0.70;72.70;;;;;;5068391;28;19947;-76
2022/03/07 07:50:28;;;;;;;;;;;0.90;70.90;;;;;;5079015;28;19929;-76
2022/03/07 07:52:55;;;;;;;;;;;1.10;71.30;;;;;;5073020;28;19928;-77
2022/03/07 07:55:22;;;;;;;;;;;1.30;72.40;;;;;;5076790;28;19932;-76
2022/03/07 07:57:49;;;;;;;;;;;1.40;71.00;;;;;;5071433;28;20338;-75
2022/03/07 08:00:19;;;;;;;;;;;1.60;70.50;;;;;;5076733;28;19925;-75
2022/03/07 08:02:50;;;;;;;;;;;1.90;69.80;;;;;;5063430;28;19974;-75
2022/03/07 08:05:18;;;;;;;;;;;2.20;69.30;;;;;;5073352;28;19936;-77
2022/03/07 08:07:45;;;;;;;;;;;2.40;68.90;;;;;;5069818;28;20350;-74
2022/03/07 08:10:13;;;;;;;;;;;2.60;67.60;;;;;;5074945;28;19924;-76
2022/03/07 08:12:40;;;;;;;;;;;2.90;66.30;;;;;;5068991;28;19932;-75
2022/03/07 08:15:11;;;;;;;;;;;3.20;65.50;;;;;;5069856;28;20316;-76
2022/03/07 08:17:43;;;;;;;;;;;3.40;64.90;;;;;;5071244;28;19931;-76
2022/03/07 08:20:10;;;;;;;;;;;3.60;64.20;;;;;;5071747;28;20394;-75
2022/03/07 08:22:37;;;;;;;;;;;3.80;63.80;;;;;;5076673;28;19924;-74
2022/03/07 08:25:04;;;;;;;;;;;4.10;62.50;;;;;;5069076;28;19924;-74
2022/03/07 08:27:32;;;;;;;;;;;4.20;61.80;;;;;;5063552;28;19974;-75
2022/03/07 08:29:59;;;;;;;;;;;4.40;60.10;;;;;;5063144;28;19936;-75
2022/03/07 08:32:26;;;;;;;;;;;4.60;60.00;;;;;;5062598;28;19990;-75
2022/03/07 08:34:55;;;;;;;;;;;4.80;59.30;;;;;;5067859;28;20339;-76
2022/03/07 08:37:21;;;;;;;;;;;4.90;58.60;;;;;;5066098;28;19936;-76
2022/03/07 08:39:48;;;;;;;;;;;5.10;59.00;;;;;;5076439;28;19936;-76
2022/03/07 08:42:16;;;;;;;;;;;5.30;57.50;;;;;;5070043;28;19925;-75
2022/03/07 08:44:43;;;;;;;;;;;5.40;54.80;;;;;;5068423;28;20350;-76
2022/03/07 08:47:10;;;;;;;;;;;5.50;54.50;;;;;;5071566;28;20015;-75
2022/03/07 08:49:37;;;;;;;;;;;5.60;54.00;;;;;;5071247;28;19924;-76
2022/03/07 08:52:04;;;;;;;;;;;5.80;53.60;;;;;;5074676;28;19994;-76
2022/03/07 08:54:31;;;;;;;;;;;6.00;52.10;;;;;;5069657;28;19932;-75
2022/03/07 08:56:58;;;;;;;;;;;6.00;51.10;;;;;;5068654;28;19928;-76
2022/03/07 08:59:27;;;;;;;;;;;6.10;49.90;;;;;;5073489;28;19928;-74
2022/03/07 09:01:54;;;;;;;;;;;6.20;49.80;;;;;;5076197;28;19978;-74
2022/03/07 09:07:50;;;;;;;;;;;6.50;48.60;;;;;;5062131;28;19977;-76
2022/03/07 09:10:16;;;;;;;;;;;6.50;48.10;;;;;;5071449;28;19928;-75
2022/03/07 09:12:43;;;;;;;;;;;6.40;48.40;;;;;;5071751;28;19936;-76
2022/03/07 09:15:10;;;;;;;;;;;6.60;49.30;;;;;;5071154;28;20410;-76
2022/03/07 09:17:37;;;;;;;;;;;6.60;48.30;;;;;;5068978;28;19924;-76
2022/03/07 09:20:05;;;;;;;;;;;6.80;48.90;;;;;;5069315;28;19932;-76
2022/03/07 09:22:32;;;;;;;;;;;6.90;48.50;;;;;;5070788;28;19964;-75
2022/03/07 09:24:59;;;;;;;;;;;6.90;47.40;;;;;;5071007;28;19928;-76
2022/03/07 09:27:26;;;;;;;;;;;6.90;48.40;;;;;;5069851;28;19925;-74
2022/03/07 09:29:53;;;;;;;;;;;7.10;48.70;;;;;;5072986;28;19928;-76
2022/03/07 09:32:20;;;;;;;;;;;7.20;47.70;;;;;;5056520;28;20292;-76
2022/03/07 09:34:47;;;;;;;;;;;7.10;47.10;;;;;;5068567;28;19924;-76
2022/03/07 09:37:15;;;;;;;;;;;7.20;47.40;;;;;;5068992;28;20469;-76
2022/03/07 09:39:42;;;;;;;;;;;7.30;47.40;;;;;;5078461;28;19928;-74
2022/03/07 09:42:09;;;;;;;;;;;7.50;47.90;;;;;;5071755;28;19928;-76
2022/03/07 09:44:36;;;;;;;;;;;7.80;47.40;;;;;;5065643;28;19925;-76
2022/03/07 09:47:04;;;;;;;;;;;7.90;45.80;;;;;;5074627;28;19932;-74
2022/03/07 09:49:31;;;;;;;;;;;8.00;44.70;;;;;;5073294;28;19929;-75
2022/03/07 09:51:59;;;;;;;;;;;8.00;45.10;;;;;;5072314;28;20410;-76
2022/03/07 09:54:26;;;;;;;;;;;8.00;44.90;;;;;;5078538;28;19929;-76
2022/03/07 09:56:53;;;;;;;;;;;7.90;45.10;;;;;;5066610;28;19925;-76
2022/03/07 09:59:21;;;;;;;;;;;8.00;45.20;;;;;;5070898;28;20393;-76
2022/03/07 10:02:04;;;;;;;;;;;8.10;45.30;;;;;;5068106;28;19928;-76
2022/03/07 10:04:32;;;;;;;;;;;8.10;44.60;;;;;;5069023;28;20011;-75
2022/03/07 10:07:01;;;;;;;;;;;8.10;44.60;;;;;;5071927;28;19928;-76
2022/03/07 10:09:28;;;;;;;;;;;8.10;44.60;;;;;;5070824;28;19924;-74
2022/03/07 10:12:00;;;;;;;;;;;8.20;44.30;;;;;;5077263;28;19924;-76
2022/03/07 10:14:42;;;;;;;;;;;8.30;44.30;;;;;;5071973;28;20300;-76
2022/03/07 10:17:16;;;;;;;;;;;8.30;43.20;;;;;;5066891;28;19933;-76
2022/03/07 10:19:44;;;;;;;;;;;8.40;43.40;;;;;;5074405;28;19936;-77
2022/03/07 10:22:19;;;;;;;;;;;8.40;43.60;;;;;;5072348;28;19929;-76
2022/03/07 10:24:45;;;;;;;;;;;8.50;42.60;;;;;;5071917;28;19924;-76
2022/03/07 10:27:23;;;;;;;;;;;8.60;43.20;;;;;;5089020;28;19935;-76
2022/03/07 10:29:50;;;;;;;;;;;8.70;42.50;;;;;;5061545;28;19925;-74
2022/03/07 10:32:18;;;;;;;;;;;8.60;42.60;;;;;;5074715;28;19989;-77
2022/03/07 10:34:44;;;;;;;;;;;8.70;42.40;;;;;;5075275;28;20441;-74
2022/03/07 10:37:12;;;;;;;;;;;8.80;42.40;;;;;;5071672;28;19997;-75
2022/03/07 10:39:45;;;;;;;;;;;9.00;42.10;;;;;;5074936;28;20002;-76
2022/03/07 10:42:15;;;;;;;;;;;9.10;42.10;;;;;;5060899;28;19947;-76
2022/03/07 10:44:42;;;;;;;;;;;9.20;40.90;;;;;;5070006;28;19986;-77
2022/03/07 10:47:09;;;;;;;;;;;9.30;40.20;;;;;;5070116;28;19986;-76
2022/03/07 10:49:46;;;;;;;;;;;9.30;40.30;;;;;;5075119;28;19924;-75
2022/03/07 10:52:13;;;;;;;;;;;9.40;41.00;;;;;;5073473;28;19924;-77
2022/03/07 10:54:40;;;;;;;;;;;9.50;39.50;;;;;;5069684;28;19975;-76
2022/03/07 10:57:07;;;;;;;;;;;9.60;38.30;;;;;;5070102;28;19924;-74
2022/03/07 10:59:35;;;;;;;;;;;9.60;38.20;;;;;;5073708;28;20322;-76
2022/03/07 11:02:13;;;;;;;;;;;9.70;39.30;;;;;;5077499;28;20295;-74
2022/03/07 11:04:44;;;;;;;;;;;9.80;37.30;;;;;;5070397;28;20339;-76
2022/03/07 11:07:12;;;;;;;;;;;9.80;37.50;;;;;;5071583;28;19939;-74
2022/03/07 11:09:39;;;;;;;;;;;9.70;36.90;;;;;;5072522;28;19928;-76
2022/03/07 11:12:13;;;;;;;;;;;9.60;38.10;;;;;;5077178;28;20384;-74
2022/03/07 11:14:41;;;;;;;;;;;9.40;38.00;;;;;;5067180;28;20418;-74
2022/03/07 11:17:14;;;;;;;;;;;9.40;38.50;;;;;;5063148;28;20388;-76
2022/03/07 11:19:42;;;;;;;;;;;9.50;37.70;;;;;;5083286;28;19924;-76
2022/03/07 11:22:10;;;;;;;;;;;9.70;38.10;;;;;;5072304;28;19928;-76
2022/03/07 11:24:38;;;;;;;;;;;9.90;39.70;;;;;;5073552;28;20355;-73
2022/03/07 11:27:05;;;;;;;;;;;10.10;38.00;;;;;;5069382;28;20414;-76
2022/03/07 11:29:34;;;;;;;;;;;10.20;37.40;;;;;;5070451;28;20311;-75
2022/03/07 11:32:04;;;;;;;;;;;10.10;36.70;;;;;;5072123;28;20001;-77
2022/03/07 11:34:33;;;;;;;;;;;10.10;37.10;;;;;;5073875;28;19928;-74
2022/03/07 11:37:00;;;;;;;;;;;10.30;36.70;;;;;;5071978;28;20381;-76
2022/03/07 11:39:28;;;;;;;;;;;10.40;36.90;;;;;;5074413;28;19974;-76
2022/03/07 11:42:06;;;;;;;;;;;10.50;36.50;;;;;;5073133;28;19946;-77
2022/03/07 11:44:40;;;;;;;;;;;10.70;37.50;;;;;;5075150;28;19928;-76
2022/03/07 11:47:08;;;;;;;;;;;10.80;36.00;;;;;;5070241;28;19924;-76
2022/03/07 11:49:35;;;;;;;;;;;10.90;36.20;;;;;;5067290;28;20006;-77
2022/03/07 11:52:06;;;;;;;;;;;10.80;35.90;;;;;;5072316;28;19973;-76
2022/03/07 11:54:34;;;;;;;;;;;10.80;35.90;;;;;;5088835;28;19928;-76
2022/03/07 11:57:08;;;;;;;;;;;10.70;36.40;;;;;;5065343;28;20446;-76
2022/03/07 11:59:35;;;;;;;;;;;10.60;36.30;;;;;;5075160;28;19929;-75
2022/03/07 12:02:03;;;;;;;;;;;10.50;36.60;;;;;;5070336;28;20418;-76
2022/03/07 12:04:40;;;;;;;;;;;10.70;37.20;;;;;;5072751;28;19963;-75
2022/03/07 12:07:07;;;;;;;;;;;10.80;37.10;;;;;;5067725;28;19932;-74
2022/03/07 12:09:35;;;;;;;;;;;11.00;36.70;;;;;;5067077;28;19928;-76
2022/03/07 12:12:03;;;;;;;;;;;11.20;37.20;;;;;;5071202;28;19986;-73
2022/03/07 12:14:32;;;;;;;;;;;11.50;36.40;;;;;;5073030;28;20364;-77
2022/03/07 12:17:00;;;;;;;;;;;11.60;35.30;;;;;;5071114;28;19928;-77
2022/03/07 12:19:29;;;;;;;;;;;11.60;35.90;;;;;;5071187;28;19924;-76
2022/03/07 12:21:56;;;;;;;;;;;11.70;35.80;;;;;;5066677;28;20407;-76
2022/03/07 12:24:24;;;;;;;;;;;11.60;35.00;;;;;;5065468;28;19932;-76
2022/03/07 12:26:51;;;;;;;;;;;11.60;34.90;;;;;;5068352;28;19929;-75
2022/03/07 12:29:20;;;;;;;;;;;11.40;35.40;;;;;;5065125;28;19948;-74
2022/03/07 12:31:47;;;;;;;;;;;11.30;35.40;;;;;;5073102;28;19925;-76
2022/03/07 12:34:17;;;;;;;;;;;11.30;34.70;;;;;;5065135;28;20514;-76
2022/03/07 12:36:45;;;;;;;;;;;11.40;36.20;;;;;;5062846;28;19931;-77
2022/03/07 12:39:12;;;;;;;;;;;11.40;36.20;;;;;;5067668;28;19924;-75
2022/03/07 12:41:39;;;;;;;;;;;11.70;36.40;;;;;;5068651;28;20005;-78
2022/03/07 12:44:06;;;;;;;;;;;11.80;35.60;;;;;;5063903;28;19970;-78
2022/03/07 12:46:33;;;;;;;;;;;12.20;37.20;;;;;;5068984;28;19928;-77
2022/03/07 12:49:00;;;;;;;;;;;12.40;34.70;;;;;;5061190;28;20285;-77
2022/03/07 12:51:27;;;;;;;;;;;12.70;34.90;;;;;;5065265;28;19928;-77
2022/03/07 12:53:58;;;;;;;;;;;13.00;35.00;;;;;;5061468;28;19985;-78
2022/03/07 12:56:33;;;;;;;;;;;13.10;33.40;;;;;;5061657;28;19932;-77
2022/03/07 12:58:59;;;;;;;;;;;13.10;34.00;;;;;;5062211;28;19977;-75
2022/03/07 13:01:28;;;;;;;;;;;13.20;33.40;;;;;;5060931;28;21127;-74
2022/03/07 13:03:56;;;;;;;;;;;13.30;33.50;;;;;;5061326;28;19932;-77
2022/03/07 13:06:23;;;;;;;;;;;13.30;34.30;;;;;;5063157;28;19932;-74
2022/03/07 13:08:51;;;;;;;;;;;13.10;32.60;;;;;;5065160;28;19924;-74
2022/03/07 13:11:36;;;;;;;;;;;13.10;33.40;;;;;;5068598;28;20375;-74
2022/03/07 13:14:03;;;;;;;;;;;13.30;32.90;;;;;;5076372;28;19924;-77
2022/03/07 13:16:31;;;;;;;;;;;13.10;32.40;;;;;;5063781;28;19939;-77
2022/03/07 13:18:59;;;;;;;;;;;13.10;32.90;;;;;;5064843;28;20292;-74
2022/03/07 13:21:30;;;;;;;;;;;12.90;32.00;;;;;;5057837;28;19925;-75
2022/03/07 13:23:57;;;;;;;;;;;12.70;32.90;;;;;;5063163;28;20372;-73
2022/03/07 13:26:26;;;;;;;;;;;12.50;33.10;;;;;;5062830;28;19932;-78
2022/03/07 13:29:03;;;;;;;;;;;12.80;34.00;;;;;;5057955;28;20438;-74
2022/03/07 13:31:40;;;;;;;;;;;12.90;33.10;;;;;;5062316;28;19982;-75
2022/03/07 13:34:07;;;;;;;;;;;12.80;33.20;;;;;;5062580;28;19924;-74
2022/03/07 13:36:38;;;;;;;;;;;12.80;32.90;;;;;;5065330;28;20019;-75
2022/03/07 13:39:15;;;;;;;;;;;12.70;33.40;;;;;;5058768;28;19979;-77
2022/03/07 13:42:11;;;;;;;;;;;12.90;34.30;;;;;;5068995;28;19932;-77
2022/03/07 13:44:49;;;;;;;;;;;13.10;33.30;;;;;;5041308;28;19929;-78
2022/03/07 13:47:16;;;;;;;;;;;13.00;32.60;;;;;;5058546;28;19932;-75
2022/03/07 13:49:45;;;;;;;;;;;13.00;33.20;;;;;;5066339;28;20295;-78
2022/03/07 13:52:22;;;;;;;;;;;13.10;33.00;;;;;;5062718;28;19999;-75
2022/03/07 13:54:50;;;;;;;;;;;13.20;32.40;;;;;;5077078;28;19928;-75
2022/03/07 13:57:30;;;;;;;;;;;13.60;33.40;;;;;;5062139;28;19924;-76
2022/03/07 13:59:58;;;;;;;;;;;13.60;32.40;;;;;;5070049;28;19932;-74
2022/03/07 14:02:25;;;;;;;;;;;13.90;32.70;;;;;;5064574;28;19928;-77
2022/03/07 14:04:59;;;;;;;;;;;13.40;31.40;;;;;;5072416;28;20389;-77
2022/03/07 14:07:27;;;;;;;;;;;13.20;32.00;;;;;;5064991;28;19936;-77
2022/03/07 14:10:16;;;;;;;;;;;13.00;32.60;;;;;;5070046;28;19932;-77
2022/03/07 14:12:50;;;;;;;;;;;13.00;33.30;;;;;;5066469;28;20415;-78
2022/03/07 14:15:25;;;;;;;;;;;13.00;33.10;;;;;;5068375;28;19928;-74
2022/03/07 14:17:56;;;;;;;;;;;13.30;33.50;;;;;;5062140;28;19933;-75
2022/03/07 14:20:23;;;;;;;;;;;12.90;32.20;;;;;;5063473;28;20406;-77
2022/03/07 14:22:49;;;;;;;;;;;12.90;32.50;;;;;;5060221;28;19982;-77
2022/03/07 14:25:16;;;;;;;;;;;12.80;32.80;;;;;;5065805;28;19924;-74
2022/03/07 14:27:43;;;;;;;;;;;12.80;32.70;;;;;;5066353;28;19964;-76
2022/03/07 14:30:14;;;;;;;;;;;12.80;33.00;;;;;;5068027;28;19974;-75